sensor_id;sensor_type;location;lat;lon;timestamp;P1;durP1;ratioP1;P2;durP2;ratioP2
6442;SDS011;3254;47.372;8.512;2022-09-25T00:01:38;21.27;;;14.13;;
6442;SDS011;3254;47.372;8.512;2022-09-25T00:04:04;19.87;;;12.77;;
6442;SDS011;3254;47.372;8.512;2022-09-25T00:06:29;17.23;;;11.70;;
6442;SDS011;3254;47.372;8.512;2022-09-25T00:08:58;16.43;;;11.87;;
6442;SDS011;3254;47.372;8.512;2022-09-25T00:11:26;17.27;;;11.10;;
6442;SDS011;3254;47.372;8.512;2022-09-25T00:13:55;10.93;;;9.53;;
6442;SDS011;3254;47.372;8.512;2022-09-25T00:16:23;9.90;;;8.70;;
6442;SDS011;3254;47.372;8.512;2022-09-25T00:18:50;10.33;;;8.30;;
6442;SDS011;3254;47.372;8.512;2022-09-25T00:21:34;11.60;;;8.53;;
6442;SDS011;3254;47.372;8.512;2022-09-25T00:24:02;9.40;;;7.83;;
6442;SDS011;3254;47.372;8.512;2022-09-25T00:26:30;8.80;;;7.00;;
6442;SDS011;3254;47.372;8.512;2022-09-25T00:28:57;9.90;;;8.90;;
6442;SDS011;3254;47.372;8.512;2022-09-25T00:31:25;8.73;;;7.83;;
6442;SDS011;3254;47.372;8.512;2022-09-25T00:33:53;12.20;;;9.23;;
6442;SDS011;3254;47.372;8.512;2022-09-25T00:36:20;14.17;;;9.80;;
6442;SDS011;3254;47.372;8.512;2022-09-25T00:38:46;11.50;;;9.43;;
6442;SDS011;3254;47.372;8.512;2022-09-25T00:41:13;12.70;;;9.93;;
6442;SDS011;3254;47.372;8.512;2022-09-25T00:43:41;18.60;;;12.40;;
6442;SDS011;3254;47.372;8.512;2022-09-25T00:46:19;18.93;;;11.77;;
6442;SDS011;3254;47.372;8.512;2022-09-25T00:51:47;24.50;;;13.23;;
6442;SDS011;3254;47.372;8.512;2022-09-25T00:54:21;22.57;;;14.00;;
6442;SDS011;3254;47.372;8.512;2022-09-25T00:57:02;38.13;;;17.63;;
6442;SDS011;3254;47.372;8.512;2022-09-25T00:59:39;35.83;;;18.30;;
6442;SDS011;3254;47.372;8.512;2022-09-25T01:02:08;84.63;;;26.40;;
6442;SDS011;3254;47.372;8.512;2022-09-25T01:04:38;163.70;;;32.43;;
6442;SDS011;3254;47.372;8.512;2022-09-25T01:07:06;147.00;;;30.27;;
6442;SDS011;3254;47.372;8.512;2022-09-25T01:09:32;144.87;;;32.40;;
6442;SDS011;3254;47.372;8.512;2022-09-25T01:11:59;351.00;;;38.47;;
6442;SDS011;3254;47.372;8.512;2022-09-25T01:14:25;247.50;;;39.13;;
6442;SDS011;3254;47.372;8.512;2022-09-25T01:16:54;187.60;;;38.60;;
6442;SDS011;3254;47.372;8.512;2022-09-25T01:25:24;103.60;;;34.10;;
6442;SDS011;3254;47.372;8.512;2022-09-25T01:30:21;443.17;;;46.37;;
6442;SDS011;3254;47.372;8.512;2022-09-25T01:35:46;191.30;;;41.13;;
6442;SDS011;3254;47.372;8.512;2022-09-25T01:46:46;198.07;;;39.13;;
6442;SDS011;3254;47.372;8.512;2022-09-25T01:49:19;272.97;;;44.60;;
6442;SDS011;3254;47.372;8.512;2022-09-25T01:51:53;174.43;;;37.77;;
6442;SDS011;3254;47.372;8.512;2022-09-25T01:56:53;126.30;;;37.80;;
6442;SDS011;3254;47.372;8.512;2022-09-25T02:02:01;139.60;;;37.20;;
6442;SDS011;3254;47.372;8.512;2022-09-25T02:04:40;117.27;;;38.33;;
6442;SDS011;3254;47.372;8.512;2022-09-25T02:07:11;123.23;;;35.30;;
6442;SDS011;3254;47.372;8.512;2022-09-25T02:09:52;146.30;;;36.07;;
6442;SDS011;3254;47.372;8.512;2022-09-25T02:12:25;127.17;;;37.17;;
6442;SDS011;3254;47.372;8.512;2022-09-25T02:14:59;113.77;;;34.40;;
6442;SDS011;3254;47.372;8.512;2022-09-25T02:17:37;120.50;;;33.10;;
6442;SDS011;3254;47.372;8.512;2022-09-25T02:20:31;112.33;;;35.10;;
6442;SDS011;3254;47.372;8.512;2022-09-25T02:25:59;125.37;;;35.97;;
6442;SDS011;3254;47.372;8.512;2022-09-25T02:28:33;105.97;;;35.00;;
6442;SDS011;3254;47.372;8.512;2022-09-25T02:31:00;114.53;;;33.87;;
6442;SDS011;3254;47.372;8.512;2022-09-25T02:33:29;99.77;;;30.80;;
6442;SDS011;3254;47.372;8.512;2022-09-25T02:35:55;112.60;;;33.37;;
6442;SDS011;3254;47.372;8.512;2022-09-25T02:38:22;105.20;;;33.17;;
6442;SDS011;3254;47.372;8.512;2022-09-25T02:43:24;100.50;;;32.93;;
6442;SDS011;3254;47.372;8.512;2022-09-25T02:54:12;163.17;;;38.27;;
6442;SDS011;3254;47.372;8.512;2022-09-25T02:57:19;124.30;;;36.00;;
6442;SDS011;3254;47.372;8.512;2022-09-25T02:59:57;115.80;;;33.73;;
6442;SDS011;3254;47.372;8.512;2022-09-25T03:02:26;145.77;;;39.77;;
6442;SDS011;3254;47.372;8.512;2022-09-25T03:04:52;139.30;;;39.57;;
6442;SDS011;3254;47.372;8.512;2022-09-25T03:07:20;146.47;;;41.00;;
6442;SDS011;3254;47.372;8.512;2022-09-25T03:09:46;135.50;;;37.33;;
6442;SDS011;3254;47.372;8.512;2022-09-25T03:12:14;124.73;;;37.20;;
6442;SDS011;3254;47.372;8.512;2022-09-25T03:14:40;126.23;;;36.00;;
6442;SDS011;3254;47.372;8.512;2022-09-25T03:17:06;133.57;;;39.67;;
6442;SDS011;3254;47.372;8.512;2022-09-25T03:19:34;124.87;;;37.07;;
6442;SDS011;3254;47.372;8.512;2022-09-25T03:22:00;143.37;;;38.67;;
6442;SDS011;3254;47.372;8.512;2022-09-25T03:24:26;139.73;;;36.37;;
6442;SDS011;3254;47.372;8.512;2022-09-25T03:26:52;143.07;;;37.90;;
6442;SDS011;3254;47.372;8.512;2022-09-25T03:29:18;125.93;;;36.93;;
6442;SDS011;3254;47.372;8.512;2022-09-25T03:31:44;120.67;;;35.97;;
6442;SDS011;3254;47.372;8.512;2022-09-25T03:34:10;143.33;;;40.50;;
6442;SDS011;3254;47.372;8.512;2022-09-25T03:36:37;128.13;;;37.80;;
6442;SDS011;3254;47.372;8.512;2022-09-25T03:39:03;127.00;;;35.80;;
6442;SDS011;3254;47.372;8.512;2022-09-25T03:41:31;106.43;;;36.60;;
6442;SDS011;3254;47.372;8.512;2022-09-25T03:43:58;119.40;;;37.13;;
6442;SDS011;3254;47.372;8.512;2022-09-25T03:46:29;139.23;;;39.27;;
6442;SDS011;3254;47.372;8.512;2022-09-25T03:48:59;126.57;;;36.20;;
6442;SDS011;3254;47.372;8.512;2022-09-25T03:51:26;115.43;;;35.53;;
6442;SDS011;3254;47.372;8.512;2022-09-25T03:53:53;117.17;;;35.60;;
6442;SDS011;3254;47.372;8.512;2022-09-25T03:56:20;111.73;;;36.77;;
6442;SDS011;3254;47.372;8.512;2022-09-25T03:58:48;115.10;;;35.07;;
6442;SDS011;3254;47.372;8.512;2022-09-25T04:01:15;114.00;;;35.13;;
6442;SDS011;3254;47.372;8.512;2022-09-25T04:03:43;118.97;;;37.13;;
6442;SDS011;3254;47.372;8.512;2022-09-25T04:06:11;119.50;;;37.87;;
6442;SDS011;3254;47.372;8.512;2022-09-25T04:08:37;105.60;;;34.60;;
6442;SDS011;3254;47.372;8.512;2022-09-25T04:11:03;106.50;;;35.23;;
6442;SDS011;3254;47.372;8.512;2022-09-25T04:13:30;117.27;;;37.13;;
6442;SDS011;3254;47.372;8.512;2022-09-25T04:15:58;112.47;;;37.30;;
6442;SDS011;3254;47.372;8.512;2022-09-25T04:18:25;111.07;;;36.30;;
6442;SDS011;3254;47.372;8.512;2022-09-25T04:20:59;130.37;;;38.00;;
6442;SDS011;3254;47.372;8.512;2022-09-25T04:23:25;117.60;;;36.47;;
6442;SDS011;3254;47.372;8.512;2022-09-25T04:25:51;117.27;;;36.27;;
6442;SDS011;3254;47.372;8.512;2022-09-25T04:28:17;106.30;;;35.33;;
6442;SDS011;3254;47.372;8.512;2022-09-25T04:30:44;110.37;;;35.03;;
6442;SDS011;3254;47.372;8.512;2022-09-25T04:33:09;96.63;;;33.47;;
6442;SDS011;3254;47.372;8.512;2022-09-25T04:35:53;85.07;;;31.40;;
6442;SDS011;3254;47.372;8.512;2022-09-25T04:38:20;106.47;;;33.50;;
6442;SDS011;3254;47.372;8.512;2022-09-25T04:40:46;141.20;;;37.70;;
6442;SDS011;3254;47.372;8.512;2022-09-25T04:43:11;113.47;;;35.67;;
6442;SDS011;3254;47.372;8.512;2022-09-25T04:45:37;111.53;;;36.40;;
6442;SDS011;3254;47.372;8.512;2022-09-25T04:48:03;117.10;;;36.93;;
6442;SDS011;3254;47.372;8.512;2022-09-25T04:50:29;127.97;;;37.50;;
6442;SDS011;3254;47.372;8.512;2022-09-25T04:52:56;123.33;;;36.93;;
6442;SDS011;3254;47.372;8.512;2022-09-25T04:55:22;142.40;;;37.20;;
6442;SDS011;3254;47.372;8.512;2022-09-25T04:57:55;125.83;;;38.27;;
6442;SDS011;3254;47.372;8.512;2022-09-25T05:00:22;121.87;;;37.67;;
6442;SDS011;3254;47.372;8.512;2022-09-25T05:02:49;116.83;;;35.70;;
6442;SDS011;3254;47.372;8.512;2022-09-25T05:05:15;114.67;;;37.47;;
6442;SDS011;3254;47.372;8.512;2022-09-25T05:07:52;123.03;;;36.57;;
6442;SDS011;3254;47.372;8.512;2022-09-25T05:10:19;109.07;;;34.83;;
6442;SDS011;3254;47.372;8.512;2022-09-25T05:12:46;119.77;;;36.10;;
6442;SDS011;3254;47.372;8.512;2022-09-25T05:15:12;111.47;;;36.53;;
6442;SDS011;3254;47.372;8.512;2022-09-25T05:17:38;111.03;;;33.10;;
6442;SDS011;3254;47.372;8.512;2022-09-25T05:20:04;116.07;;;36.27;;
6442;SDS011;3254;47.372;8.512;2022-09-25T05:22:30;95.03;;;32.50;;
6442;SDS011;3254;47.372;8.512;2022-09-25T05:24:56;122.40;;;34.80;;
6442;SDS011;3254;47.372;8.512;2022-09-25T05:27:21;117.00;;;36.40;;
6442;SDS011;3254;47.372;8.512;2022-09-25T05:29:47;106.97;;;33.80;;
6442;SDS011;3254;47.372;8.512;2022-09-25T05:32:13;101.00;;;34.60;;
6442;SDS011;3254;47.372;8.512;2022-09-25T05:34:39;109.73;;;34.80;;
6442;SDS011;3254;47.372;8.512;2022-09-25T05:37:05;108.77;;;36.20;;
6442;SDS011;3254;47.372;8.512;2022-09-25T05:39:31;99.60;;;33.30;;
6442;SDS011;3254;47.372;8.512;2022-09-25T05:41:56;106.83;;;35.60;;
6442;SDS011;3254;47.372;8.512;2022-09-25T05:44:22;109.40;;;36.23;;
6442;SDS011;3254;47.372;8.512;2022-09-25T05:46:49;97.43;;;31.87;;
6442;SDS011;3254;47.372;8.512;2022-09-25T05:49:14;94.17;;;32.43;;
6442;SDS011;3254;47.372;8.512;2022-09-25T05:51:40;99.73;;;32.43;;
6442;SDS011;3254;47.372;8.512;2022-09-25T05:54:06;87.07;;;32.17;;
6442;SDS011;3254;47.372;8.512;2022-09-25T05:56:31;78.93;;;28.50;;
6442;SDS011;3254;47.372;8.512;2022-09-25T05:58:57;79.77;;;29.40;;
6442;SDS011;3254;47.372;8.512;2022-09-25T06:01:23;82.47;;;29.97;;
6442;SDS011;3254;47.372;8.512;2022-09-25T06:03:49;75.20;;;29.57;;
6442;SDS011;3254;47.372;8.512;2022-09-25T06:06:15;73.97;;;28.97;;
6442;SDS011;3254;47.372;8.512;2022-09-25T06:08:41;78.50;;;28.47;;
6442;SDS011;3254;47.372;8.512;2022-09-25T06:11:06;70.37;;;27.80;;
6442;SDS011;3254;47.372;8.512;2022-09-25T06:13:33;72.70;;;29.10;;
6442;SDS011;3254;47.372;8.512;2022-09-25T06:16:01;58.47;;;25.80;;
6442;SDS011;3254;47.372;8.512;2022-09-25T06:18:27;74.53;;;26.70;;
6442;SDS011;3254;47.372;8.512;2022-09-25T06:21:00;70.80;;;27.07;;
6442;SDS011;3254;47.372;8.512;2022-09-25T06:23:27;58.80;;;25.17;;
6442;SDS011;3254;47.372;8.512;2022-09-25T06:25:53;59.53;;;25.43;;
6442;SDS011;3254;47.372;8.512;2022-09-25T06:28:19;62.23;;;24.50;;
6442;SDS011;3254;47.372;8.512;2022-09-25T06:30:44;46.87;;;24.40;;
6442;SDS011;3254;47.372;8.512;2022-09-25T06:33:11;46.40;;;24.33;;
6442;SDS011;3254;47.372;8.512;2022-09-25T06:35:45;50.03;;;23.10;;
6442;SDS011;3254;47.372;8.512;2022-09-25T06:38:12;47.97;;;24.07;;
6442;SDS011;3254;47.372;8.512;2022-09-25T06:40:39;45.43;;;22.50;;
6442;SDS011;3254;47.372;8.512;2022-09-25T06:43:06;43.43;;;22.73;;
6442;SDS011;3254;47.372;8.512;2022-09-25T06:45:35;40.20;;;20.03;;
6442;SDS011;3254;47.372;8.512;2022-09-25T06:48:07;35.33;;;19.60;;
6442;SDS011;3254;47.372;8.512;2022-09-25T06:53:08;27.90;;;17.17;;
6442;SDS011;3254;47.372;8.512;2022-09-25T06:55:35;25.00;;;16.33;;
6442;SDS011;3254;47.372;8.512;2022-09-25T06:58:02;26.73;;;14.63;;
6442;SDS011;3254;47.372;8.512;2022-09-25T07:00:28;24.50;;;16.37;;
6442;SDS011;3254;47.372;8.512;2022-09-25T07:02:56;24.23;;;14.90;;
6442;SDS011;3254;47.372;8.512;2022-09-25T07:05:41;19.87;;;13.83;;
6442;SDS011;3254;47.372;8.512;2022-09-25T07:08:09;22.40;;;13.87;;
6442;SDS011;3254;47.372;8.512;2022-09-25T07:10:48;19.10;;;14.00;;
6442;SDS011;3254;47.372;8.512;2022-09-25T07:13:15;16.03;;;12.27;;
6442;SDS011;3254;47.372;8.512;2022-09-25T07:16:01;17.80;;;12.43;;
6442;SDS011;3254;47.372;8.512;2022-09-25T07:18:32;12.73;;;11.43;;
6442;SDS011;3254;47.372;8.512;2022-09-25T07:20:58;17.37;;;12.60;;
6442;SDS011;3254;47.372;8.512;2022-09-25T07:23:29;13.23;;;11.00;;
6442;SDS011;3254;47.372;8.512;2022-09-25T07:25:56;12.83;;;10.80;;
6442;SDS011;3254;47.372;8.512;2022-09-25T07:28:27;13.20;;;10.07;;
6442;SDS011;3254;47.372;8.512;2022-09-25T07:30:53;11.53;;;10.33;;
6442;SDS011;3254;47.372;8.512;2022-09-25T07:33:19;14.90;;;10.33;;
6442;SDS011;3254;47.372;8.512;2022-09-25T07:35:48;11.53;;;10.33;;
6442;SDS011;3254;47.372;8.512;2022-09-25T07:38:16;13.23;;;10.63;;
6442;SDS011;3254;47.372;8.512;2022-09-25T07:40:42;12.83;;;11.50;;
6442;SDS011;3254;47.372;8.512;2022-09-25T07:43:08;13.77;;;11.30;;
6442;SDS011;3254;47.372;8.512;2022-09-25T07:45:34;14.23;;;11.30;;
6442;SDS011;3254;47.372;8.512;2022-09-25T07:48:01;14.80;;;11.10;;
6442;SDS011;3254;47.372;8.512;2022-09-25T07:50:28;14.73;;;11.00;;
6442;SDS011;3254;47.372;8.512;2022-09-25T07:52:54;13.80;;;11.80;;
6442;SDS011;3254;47.372;8.512;2022-09-25T07:55:20;13.70;;;12.30;;
6442;SDS011;3254;47.372;8.512;2022-09-25T07:57:46;12.33;;;11.10;;
6442;SDS011;3254;47.372;8.512;2022-09-25T08:00:13;13.10;;;10.77;;
6442;SDS011;3254;47.372;8.512;2022-09-25T08:02:38;18.30;;;10.67;;
6442;SDS011;3254;47.372;8.512;2022-09-25T08:05:04;13.70;;;11.60;;
6442;SDS011;3254;47.372;8.512;2022-09-25T08:07:30;15.87;;;11.93;;
6442;SDS011;3254;47.372;8.512;2022-09-25T08:09:56;13.20;;;11.43;;
6442;SDS011;3254;47.372;8.512;2022-09-25T08:12:22;16.73;;;11.77;;
6442;SDS011;3254;47.372;8.512;2022-09-25T08:14:49;17.90;;;11.90;;
6442;SDS011;3254;47.372;8.512;2022-09-25T08:17:16;13.33;;;11.70;;
6442;SDS011;3254;47.372;8.512;2022-09-25T08:19:42;14.37;;;10.80;;
6442;SDS011;3254;47.372;8.512;2022-09-25T08:22:08;12.57;;;10.43;;
6442;SDS011;3254;47.372;8.512;2022-09-25T08:24:33;12.80;;;9.90;;
6442;SDS011;3254;47.372;8.512;2022-09-25T08:26:59;9.87;;;8.93;;
6442;SDS011;3254;47.372;8.512;2022-09-25T08:29:25;10.47;;;9.40;;
6442;SDS011;3254;47.372;8.512;2022-09-25T08:31:50;10.93;;;9.20;;
6442;SDS011;3254;47.372;8.512;2022-09-25T08:34:16;13.33;;;10.23;;
6442;SDS011;3254;47.372;8.512;2022-09-25T08:36:42;13.17;;;10.60;;
6442;SDS011;3254;47.372;8.512;2022-09-25T08:39:08;14.23;;;11.80;;
6442;SDS011;3254;47.372;8.512;2022-09-25T08:41:43;11.53;;;10.30;;
6442;SDS011;3254;47.372;8.512;2022-09-25T08:44:22;11.80;;;9.97;;
6442;SDS011;3254;47.372;8.512;2022-09-25T08:52:33;10.90;;;9.83;;
6442;SDS011;3254;47.372;8.512;2022-09-25T08:55:23;9.97;;;8.90;;
6442;SDS011;3254;47.372;8.512;2022-09-25T08:58:22;11.43;;;9.23;;
6442;SDS011;3254;47.372;8.512;2022-09-25T09:01:05;11.10;;;9.20;;
6442;SDS011;3254;47.372;8.512;2022-09-25T09:06:36;12.27;;;10.03;;
6442;SDS011;3254;47.372;8.512;2022-09-25T09:09:05;15.03;;;10.33;;
6442;SDS011;3254;47.372;8.512;2022-09-25T09:11:37;13.00;;;10.40;;
6442;SDS011;3254;47.372;8.512;2022-09-25T09:14:12;11.53;;;10.33;;
6442;SDS011;3254;47.372;8.512;2022-09-25T09:16:43;14.27;;;11.27;;
6442;SDS011;3254;47.372;8.512;2022-09-25T09:19:14;13.63;;;10.70;;
6442;SDS011;3254;47.372;8.512;2022-09-25T09:21:49;11.27;;;9.83;;
6442;SDS011;3254;47.372;8.512;2022-09-25T09:28:03;12.83;;;11.43;;
6442;SDS011;3254;47.372;8.512;2022-09-25T09:35:59;19.50;;;13.37;;
6442;SDS011;3254;47.372;8.512;2022-09-25T09:44:38;16.67;;;12.30;;
6442;SDS011;3254;47.372;8.512;2022-09-25T09:47:40;19.97;;;13.67;;
6442;SDS011;3254;47.372;8.512;2022-09-25T09:50:40;17.23;;;11.80;;
6442;SDS011;3254;47.372;8.512;2022-09-25T09:56:02;17.30;;;11.53;;
6442;SDS011;3254;47.372;8.512;2022-09-25T09:58:55;12.63;;;9.03;;
6442;SDS011;3254;47.372;8.512;2022-09-25T10:06:47;12.60;;;9.40;;
6442;SDS011;3254;47.372;8.512;2022-09-25T10:09:17;12.20;;;8.50;;
6442;SDS011;3254;47.372;8.512;2022-09-25T10:11:43;10.93;;;8.40;;
6442;SDS011;3254;47.372;8.512;2022-09-25T10:14:14;10.73;;;8.60;;
6442;SDS011;3254;47.372;8.512;2022-09-25T10:16:46;12.73;;;9.60;;
6442;SDS011;3254;47.372;8.512;2022-09-25T10:21:50;8.00;;;7.30;;
6442;SDS011;3254;47.372;8.512;2022-09-25T10:27:50;9.87;;;8.30;;
6442;SDS011;3254;47.372;8.512;2022-09-25T10:30:19;17.43;;;7.47;;
6442;SDS011;3254;47.372;8.512;2022-09-25T10:35:44;7.30;;;6.70;;
6442;SDS011;3254;47.372;8.512;2022-09-25T10:38:26;5.70;;;5.20;;
6442;SDS011;3254;47.372;8.512;2022-09-25T10:41:12;7.50;;;6.70;;
6442;SDS011;3254;47.372;8.512;2022-09-25T10:43:57;6.47;;;5.97;;
6442;SDS011;3254;47.372;8.512;2022-09-25T10:46:31;10.60;;;8.30;;
6442;SDS011;3254;47.372;8.512;2022-09-25T10:52:05;6.13;;;5.60;;
6442;SDS011;3254;47.372;8.512;2022-09-25T10:54:33;4.97;;;4.67;;
6442;SDS011;3254;47.372;8.512;2022-09-25T10:56:59;5.83;;;5.43;;
6442;SDS011;3254;47.372;8.512;2022-09-25T10:59:26;7.80;;;5.50;;
6442;SDS011;3254;47.372;8.512;2022-09-25T11:01:54;6.00;;;5.50;;
6442;SDS011;3254;47.372;8.512;2022-09-25T11:04:30;6.70;;;6.00;;
6442;SDS011;3254;47.372;8.512;2022-09-25T11:07:03;7.20;;;6.60;;
6442;SDS011;3254;47.372;8.512;2022-09-25T11:09:42;7.83;;;7.03;;
6442;SDS011;3254;47.372;8.512;2022-09-25T11:12:13;7.33;;;6.73;;
6442;SDS011;3254;47.372;8.512;2022-09-25T11:15:03;6.90;;;6.30;;
6442;SDS011;3254;47.372;8.512;2022-09-25T11:17:37;7.53;;;6.83;;
6442;SDS011;3254;47.372;8.512;2022-09-25T11:28:26;7.83;;;7.03;;
6442;SDS011;3254;47.372;8.512;2022-09-25T11:31:06;6.90;;;6.40;;
6442;SDS011;3254;47.372;8.512;2022-09-25T11:36:46;7.43;;;6.63;;
6442;SDS011;3254;47.372;8.512;2022-09-25T11:39:34;8.47;;;7.77;;
6442;SDS011;3254;47.372;8.512;2022-09-25T11:42:47;10.30;;;9.20;;
6442;SDS011;3254;47.372;8.512;2022-09-25T11:48:49;8.77;;;7.07;;
6442;SDS011;3254;47.372;8.512;2022-09-25T11:51:49;8.27;;;7.07;;
6442;SDS011;3254;47.372;8.512;2022-09-25T12:11:54;10.50;;;8.30;;
6442;SDS011;3254;47.372;8.512;2022-09-25T12:25:39;10.13;;;9.10;;
6442;SDS011;3254;47.372;8.512;2022-09-25T12:31:42;8.70;;;7.90;;
6442;SDS011;3254;47.372;8.512;2022-09-25T12:39:51;8.30;;;7.50;;
6442;SDS011;3254;47.372;8.512;2022-09-25T12:42:42;9.10;;;7.80;;
6442;SDS011;3254;47.372;8.512;2022-09-25T12:50:49;9.20;;;8.30;;
6442;SDS011;3254;47.372;8.512;2022-09-25T12:55:57;8.07;;;7.27;;
6442;SDS011;3254;47.372;8.512;2022-09-25T12:58:38;6.07;;;5.57;;
6442;SDS011;3254;47.372;8.512;2022-09-25T13:01:27;4.40;;;4.07;;
6442;SDS011;3254;47.372;8.512;2022-09-25T13:14:28;3.33;;;3.13;;
6442;SDS011;3254;47.372;8.512;2022-09-25T13:17:00;3.20;;;3.00;;
6442;SDS011;3254;47.372;8.512;2022-09-25T13:19:28;3.80;;;3.10;;
6442;SDS011;3254;47.372;8.512;2022-09-25T13:21:58;2.83;;;2.53;;
6442;SDS011;3254;47.372;8.512;2022-09-25T13:24:45;2.70;;;2.60;;
6442;SDS011;3254;47.372;8.512;2022-09-25T13:27:37;2.20;;;2.10;;
6442;SDS011;3254;47.372;8.512;2022-09-25T13:30:18;2.37;;;2.27;;
6442;SDS011;3254;47.372;8.512;2022-09-25T13:32:52;1.93;;;1.83;;
6442;SDS011;3254;47.372;8.512;2022-09-25T13:35:31;2.40;;;2.30;;
6442;SDS011;3254;47.372;8.512;2022-09-25T13:38:12;2.47;;;2.37;;
6442;SDS011;3254;47.372;8.512;2022-09-25T13:41:00;2.40;;;2.30;;
6442;SDS011;3254;47.372;8.512;2022-09-25T13:43:37;3.30;;;2.17;;
6442;SDS011;3254;47.372;8.512;2022-09-25T13:48:42;2.17;;;1.93;;
6442;SDS011;3254;47.372;8.512;2022-09-25T13:54:03;2.17;;;2.07;;
6442;SDS011;3254;47.372;8.512;2022-09-25T13:56:49;2.30;;;2.20;;
6442;SDS011;3254;47.372;8.512;2022-09-25T13:59:19;1.87;;;1.77;;
6442;SDS011;3254;47.372;8.512;2022-09-25T14:01:54;2.10;;;2.00;;
6442;SDS011;3254;47.372;8.512;2022-09-25T14:04:49;2.20;;;2.10;;
6442;SDS011;3254;47.372;8.512;2022-09-25T14:07:20;2.60;;;2.50;;
6442;SDS011;3254;47.372;8.512;2022-09-25T14:09:52;2.30;;;2.20;;
6442;SDS011;3254;47.372;8.512;2022-09-25T14:12:28;2.70;;;2.60;;
6442;SDS011;3254;47.372;8.512;2022-09-25T14:15:15;3.00;;;2.90;;
6442;SDS011;3254;47.372;8.512;2022-09-25T14:17:56;3.50;;;3.17;;
6442;SDS011;3254;47.372;8.512;2022-09-25T14:23:02;4.43;;;4.10;;
6442;SDS011;3254;47.372;8.512;2022-09-25T14:25:32;4.23;;;3.83;;
6442;SDS011;3254;47.372;8.512;2022-09-25T14:28:17;3.83;;;3.53;;
6442;SDS011;3254;47.372;8.512;2022-09-25T14:31:05;4.00;;;3.57;;
6442;SDS011;3254;47.372;8.512;2022-09-25T14:36:46;2.90;;;2.80;;
6442;SDS011;3254;47.372;8.512;2022-09-25T14:45:06;3.33;;;3.03;;
6442;SDS011;3254;47.372;8.512;2022-09-25T14:47:40;4.07;;;3.43;;
6442;SDS011;3254;47.372;8.512;2022-09-25T14:50:15;3.70;;;3.50;;
6442;SDS011;3254;47.372;8.512;2022-09-25T14:52:51;3.90;;;3.63;;
6442;SDS011;3254;47.372;8.512;2022-09-25T14:55:34;4.43;;;3.10;;
6442;SDS011;3254;47.372;8.512;2022-09-25T14:58:02;3.50;;;3.30;;
6442;SDS011;3254;47.372;8.512;2022-09-25T15:00:33;3.47;;;3.33;;
6442;SDS011;3254;47.372;8.512;2022-09-25T15:03:00;3.83;;;3.53;;
6442;SDS011;3254;47.372;8.512;2022-09-25T15:05:30;3.53;;;3.37;;
6442;SDS011;3254;47.372;8.512;2022-09-25T15:08:01;4.00;;;3.70;;
6442;SDS011;3254;47.372;8.512;2022-09-25T15:10:44;3.73;;;3.53;;
6442;SDS011;3254;47.372;8.512;2022-09-25T15:13:17;3.77;;;3.57;;
6442;SDS011;3254;47.372;8.512;2022-09-25T15:15:45;3.03;;;2.93;;
6442;SDS011;3254;47.372;8.512;2022-09-25T15:18:32;4.07;;;3.80;;
6442;SDS011;3254;47.372;8.512;2022-09-25T15:21:02;5.20;;;4.80;;
6442;SDS011;3254;47.372;8.512;2022-09-25T15:23:28;3.90;;;3.70;;
6442;SDS011;3254;47.372;8.512;2022-09-25T15:25:54;4.20;;;3.90;;
6442;SDS011;3254;47.372;8.512;2022-09-25T15:28:24;4.70;;;3.30;;
6442;SDS011;3254;47.372;8.512;2022-09-25T15:30:58;4.67;;;4.23;;
6442;SDS011;3254;47.372;8.512;2022-09-25T15:33:40;4.10;;;3.70;;
6442;SDS011;3254;47.372;8.512;2022-09-25T15:36:16;5.57;;;3.50;;
6442;SDS011;3254;47.372;8.512;2022-09-25T15:38:59;4.07;;;3.87;;
6442;SDS011;3254;47.372;8.512;2022-09-25T15:41:32;6.30;;;3.40;;
6442;SDS011;3254;47.372;8.512;2022-09-25T15:44:21;4.13;;;3.93;;
6442;SDS011;3254;47.372;8.512;2022-09-25T15:46:52;3.77;;;3.57;;
6442;SDS011;3254;47.372;8.512;2022-09-25T15:52:04;4.43;;;4.13;;
6442;SDS011;3254;47.372;8.512;2022-09-25T15:54:44;4.37;;;4.07;;
6442;SDS011;3254;47.372;8.512;2022-09-25T15:57:15;5.23;;;4.90;;
6442;SDS011;3254;47.372;8.512;2022-09-25T15:59:49;5.10;;;4.53;;
6442;SDS011;3254;47.372;8.512;2022-09-25T16:02:35;6.70;;;5.23;;
6442;SDS011;3254;47.372;8.512;2022-09-25T16:05:33;4.33;;;4.13;;
6442;SDS011;3254;47.372;8.512;2022-09-25T16:10:49;4.40;;;4.20;;
6442;SDS011;3254;47.372;8.512;2022-09-25T16:13:28;4.50;;;4.20;;
6442;SDS011;3254;47.372;8.512;2022-09-25T16:15:56;6.20;;;5.70;;
6442;SDS011;3254;47.372;8.512;2022-09-25T16:18:24;3.97;;;3.77;;
6442;SDS011;3254;47.372;8.512;2022-09-25T16:23:42;4.60;;;4.30;;
6442;SDS011;3254;47.372;8.512;2022-09-25T16:26:18;4.10;;;3.90;;
6442;SDS011;3254;47.372;8.512;2022-09-25T16:28:57;9.03;;;6.40;;
6442;SDS011;3254;47.372;8.512;2022-09-25T16:31:24;5.17;;;4.70;;
6442;SDS011;3254;47.372;8.512;2022-09-25T16:33:52;4.37;;;3.97;;
6442;SDS011;3254;47.372;8.512;2022-09-25T16:36:21;4.17;;;3.97;;
6442;SDS011;3254;47.372;8.512;2022-09-25T16:41:55;4.13;;;3.93;;
6442;SDS011;3254;47.372;8.512;2022-09-25T16:49:21;4.17;;;3.87;;
6442;SDS011;3254;47.372;8.512;2022-09-25T16:51:49;3.80;;;3.50;;
6442;SDS011;3254;47.372;8.512;2022-09-25T16:54:17;5.20;;;4.70;;
6442;SDS011;3254;47.372;8.512;2022-09-25T16:56:46;4.73;;;4.33;;
6442;SDS011;3254;47.372;8.512;2022-09-25T16:59:17;4.27;;;4.07;;
6442;SDS011;3254;47.372;8.512;2022-09-25T17:01:52;4.53;;;4.23;;
6442;SDS011;3254;47.372;8.512;2022-09-25T17:04:26;3.93;;;3.73;;
6442;SDS011;3254;47.372;8.512;2022-09-25T17:06:54;6.10;;;5.57;;
6442;SDS011;3254;47.372;8.512;2022-09-25T17:09:23;4.23;;;3.97;;
6442;SDS011;3254;47.372;8.512;2022-09-25T17:11:58;4.07;;;3.30;;
6442;SDS011;3254;47.372;8.512;2022-09-25T17:14:27;8.50;;;4.43;;
6442;SDS011;3254;47.372;8.512;2022-09-25T17:16:54;3.60;;;3.40;;
6442;SDS011;3254;47.372;8.512;2022-09-25T17:19:20;3.80;;;3.60;;
6442;SDS011;3254;47.372;8.512;2022-09-25T17:21:47;3.67;;;3.47;;
6442;SDS011;3254;47.372;8.512;2022-09-25T17:24:18;3.53;;;3.23;;
6442;SDS011;3254;47.372;8.512;2022-09-25T17:26:48;4.50;;;4.20;;
6442;SDS011;3254;47.372;8.512;2022-09-25T17:29:15;3.60;;;3.40;;
6442;SDS011;3254;47.372;8.512;2022-09-25T17:31:42;3.37;;;3.27;;
6442;SDS011;3254;47.372;8.512;2022-09-25T17:34:17;10.10;;;9.07;;
6442;SDS011;3254;47.372;8.512;2022-09-25T17:36:49;4.90;;;4.50;;
6442;SDS011;3254;47.372;8.512;2022-09-25T17:39:16;4.57;;;4.37;;
6442;SDS011;3254;47.372;8.512;2022-09-25T17:41:41;3.53;;;3.33;;
6442;SDS011;3254;47.372;8.512;2022-09-25T17:44:11;4.37;;;3.97;;
6442;SDS011;3254;47.372;8.512;2022-09-25T17:46:40;3.97;;;3.67;;
6442;SDS011;3254;47.372;8.512;2022-09-25T17:49:07;4.17;;;3.87;;
6442;SDS011;3254;47.372;8.512;2022-09-25T17:51:34;3.80;;;3.60;;
6442;SDS011;3254;47.372;8.512;2022-09-25T17:53:59;3.73;;;3.53;;
6442;SDS011;3254;47.372;8.512;2022-09-25T17:56:27;5.57;;;4.10;;
6442;SDS011;3254;47.372;8.512;2022-09-25T17:58:54;3.87;;;3.57;;
6442;SDS011;3254;47.372;8.512;2022-09-25T18:01:26;4.07;;;3.87;;
6442;SDS011;3254;47.372;8.512;2022-09-25T18:03:54;4.20;;;3.90;;
6442;SDS011;3254;47.372;8.512;2022-09-25T18:06:30;4.60;;;4.30;;
6442;SDS011;3254;47.372;8.512;2022-09-25T18:08:56;4.87;;;4.50;;
6442;SDS011;3254;47.372;8.512;2022-09-25T18:11:24;4.80;;;4.33;;
6442;SDS011;3254;47.372;8.512;2022-09-25T18:13:51;4.67;;;4.20;;
6442;SDS011;3254;47.372;8.512;2022-09-25T18:16:30;4.80;;;4.50;;
6442;SDS011;3254;47.372;8.512;2022-09-25T18:18:56;6.67;;;6.07;;
6442;SDS011;3254;47.372;8.512;2022-09-25T18:21:41;5.93;;;5.33;;
6442;SDS011;3254;47.372;8.512;2022-09-25T18:24:25;5.97;;;5.27;;
6442;SDS011;3254;47.372;8.512;2022-09-25T18:26:51;5.70;;;5.30;;
6442;SDS011;3254;47.372;8.512;2022-09-25T18:29:19;5.20;;;4.90;;
6442;SDS011;3254;47.372;8.512;2022-09-25T18:31:45;5.07;;;4.77;;
6442;SDS011;3254;47.372;8.512;2022-09-25T18:34:12;6.30;;;5.80;;